createdAt,value
2022-11-05T00:00:07.054Z,4.90
2022-11-05T00:02:52.536Z,5.13
2022-11-05T00:05:37.848Z,4.90
2022-11-05T00:08:23.872Z,4.47
2022-11-05T00:10:50.912Z,4.63
2022-11-05T00:13:36.258Z,4.32
2022-11-05T00:16:21.690Z,4.35
2022-11-05T00:19:06.597Z,4.30
2022-11-05T00:21:53.018Z,4.78
2022-11-05T00:24:38.457Z,4.25
2022-11-05T00:27:05.382Z,4.68
2022-11-05T00:29:32.238Z,4.47
2022-11-05T00:31:59.113Z,4.28
2022-11-05T00:34:26.083Z,4.57
2022-11-05T00:36:53.034Z,4.82
2022-11-05T00:39:22.386Z,3.97
2022-11-05T00:42:09.178Z,4.45
2022-11-05T00:44:54.540Z,3.90
2022-11-05T00:47:40.102Z,4.30
2022-11-05T00:50:07.175Z,4.38
2022-11-05T00:52:52.681Z,3.55
2022-11-05T00:55:19.568Z,3.30
2022-11-05T00:57:46.355Z,3.70
2022-11-05T01:00:13.904Z,3.67
2022-11-05T01:02:40.790Z,4.07
2022-11-05T01:05:08.316Z,3.55
2022-11-05T01:07:35.134Z,3.58
2022-11-05T01:10:02.036Z,4.05
2022-11-05T01:12:29.007Z,3.47
2022-11-05T01:14:55.903Z,3.70
2022-11-05T01:17:22.716Z,3.92
2022-11-05T01:19:49.531Z,4.40
2022-11-05T01:22:16.342Z,3.33
2022-11-05T01:24:43.190Z,3.53
2022-11-05T01:27:10.049Z,3.50
2022-11-05T01:29:36.929Z,3.50
2022-11-05T01:32:03.943Z,3.88
2022-11-05T01:34:30.874Z,3.88
2022-11-05T01:36:57.698Z,3.92
2022-11-05T01:39:24.528Z,3.65
2022-11-05T01:41:51.347Z,3.28
2022-11-05T01:44:51.976Z,3.63
2022-11-05T01:47:36.599Z,3.25
2022-11-05T01:50:19.421Z,3.63
2022-11-05T01:52:47.928Z,3.67
2022-11-05T01:55:19.794Z,3.35
2022-11-05T01:57:46.839Z,3.25
2022-11-05T02:00:14.249Z,3.15
2022-11-05T02:02:41.730Z,3.17
2022-11-05T02:05:11.026Z,3.42
2022-11-05T02:07:37.973Z,3.90
2022-11-05T02:10:08.128Z,3.88
2022-11-05T02:12:39.256Z,3.08
2022-11-05T02:15:07.063Z,3.70
2022-11-05T02:17:52.047Z,3.20
2022-11-05T02:20:50.923Z,3.20
2022-11-05T02:23:27.664Z,3.47
2022-11-05T02:26:08.813Z,3.20
2022-11-05T02:29:08.106Z,3.50
2022-11-05T02:31:37.646Z,2.90
2022-11-05T02:34:31.042Z,2.97
2022-11-05T02:37:35.504Z,3.45
2022-11-05T02:40:29.099Z,3.25
2022-11-05T02:43:19.156Z,3.10
2022-11-05T02:46:28.221Z,3.22
2022-11-05T02:49:27.303Z,3.63
2022-11-05T02:52:06.623Z,3.30
2022-11-05T02:54:43.118Z,3.47
2022-11-05T02:57:10.045Z,3.33
2022-11-05T02:59:36.856Z,3.90
2022-11-05T03:02:05.469Z,3.10
2022-11-05T03:04:32.770Z,3.20
2022-11-05T03:07:22.447Z,3.10
2022-11-05T03:10:11.657Z,3.80
2022-11-05T03:13:00.715Z,3.53
2022-11-05T03:15:48.997Z,3.03
2022-11-05T03:18:28.055Z,3.55
2022-11-05T03:21:00.337Z,3.50
2022-11-05T03:23:41.426Z,3.47
2022-11-05T03:26:35.801Z,3.53
2022-11-05T03:29:06.814Z,3.60
2022-11-05T03:31:35.306Z,4.22
2022-11-05T03:34:05.451Z,3.50
2022-11-05T03:36:41.201Z,3.45
2022-11-05T03:39:17.727Z,3.10
2022-11-05T03:41:49.197Z,3.58
2022-11-05T03:44:21.969Z,2.80
2022-11-05T03:46:50.866Z,3.38
2022-11-05T03:49:29.048Z,3.83
2022-11-05T03:52:04.279Z,3.25
2022-11-05T03:54:31.374Z,3.70
2022-11-05T03:57:06.834Z,3.42
2022-11-05T03:59:46.770Z,3.92
2022-11-05T04:02:15.906Z,3.20
2022-11-05T04:04:43.013Z,3.50
2022-11-05T04:07:29.425Z,4.38
2022-11-05T04:10:15.334Z,3.55
2022-11-05T04:13:00.575Z,3.75
2022-11-05T04:15:29.669Z,3.78
2022-11-05T04:17:58.978Z,4.20
2022-11-05T04:20:44.943Z,3.03
2022-11-05T04:23:30.425Z,3.47
2022-11-05T04:25:57.236Z,3.60
2022-11-05T04:28:44.011Z,3.80
2022-11-05T04:31:10.793Z,3.63
2022-11-05T04:33:37.569Z,3.92
2022-11-05T04:36:04.577Z,3.67
2022-11-05T04:38:31.373Z,3.70
2022-11-05T04:41:16.617Z,4.57
2022-11-05T04:43:44.317Z,4.10
2022-11-05T04:46:11.366Z,3.30
2022-11-05T04:48:38.617Z,4.00
2022-11-05T04:51:05.837Z,3.67
2022-11-05T04:53:32.817Z,3.95
2022-11-05T04:56:16.759Z,4.30
2022-11-05T04:58:44.291Z,4.38
2022-11-05T05:01:17.427Z,3.70
2022-11-05T05:03:46.735Z,3.88
2022-11-05T05:06:13.589Z,4.40
2022-11-05T05:08:40.539Z,3.97
2022-11-05T05:11:10.619Z,4.10
2022-11-05T05:13:37.810Z,4.10
2022-11-05T05:16:18.716Z,4.15
2022-11-05T05:18:46.503Z,4.03
2022-11-05T05:21:32.650Z,4.28
2022-11-05T05:23:59.619Z,4.25
2022-11-05T05:26:26.791Z,4.20
2022-11-05T05:28:54.228Z,4.40
2022-11-05T05:31:22.215Z,4.60
2022-11-05T05:33:49.276Z,4.00
2022-11-05T05:36:16.366Z,4.40
2022-11-05T05:38:43.166Z,5.05
2022-11-05T05:41:10.000Z,4.38
2022-11-05T05:43:36.914Z,4.97
2022-11-05T05:46:05.258Z,4.70
2022-11-05T05:48:32.325Z,4.35
2022-11-05T05:51:07.748Z,4.55
2022-11-05T05:53:34.753Z,3.95
2022-11-05T05:56:01.933Z,4.38
2022-11-05T05:58:33.399Z,4.57
2022-11-05T06:01:01.462Z,4.30
2022-11-05T06:03:28.330Z,4.70
2022-11-05T06:06:01.277Z,4.93
2022-11-05T06:08:28.634Z,3.80
2022-11-05T06:10:55.715Z,4.90
2022-11-05T06:13:22.769Z,4.80
2022-11-05T06:15:49.804Z,4.32
2022-11-05T06:18:16.746Z,4.30
2022-11-05T06:20:43.623Z,4.80
2022-11-05T06:23:10.643Z,5.15
2022-11-05T06:25:41.193Z,4.50
2022-11-05T06:28:08.537Z,5.28
2022-11-05T06:30:35.397Z,4.68
2022-11-05T06:33:03.970Z,4.85
2022-11-05T06:35:31.284Z,4.22
2022-11-05T06:38:01.997Z,4.80
2022-11-05T06:40:29.468Z,4.72
2022-11-05T06:42:56.353Z,4.63
2022-11-05T06:45:23.278Z,5.05
2022-11-05T06:47:58.984Z,4.53
2022-11-05T06:50:27.880Z,4.53
2022-11-05T06:53:01.836Z,4.38
2022-11-05T06:55:30.488Z,4.47
2022-11-05T06:57:57.853Z,4.25
2022-11-05T07:00:25.002Z,4.90
2022-11-05T07:02:51.893Z,5.07
2022-11-05T07:05:18.961Z,4.72
2022-11-05T07:07:46.271Z,4.78
2022-11-05T07:10:18.005Z,4.53
2022-11-05T07:12:44.829Z,4.70
2022-11-05T07:15:12.877Z,4.50
2022-11-05T07:17:40.718Z,4.70
2022-11-05T07:20:08.637Z,4.53
2022-11-05T07:22:36.173Z,4.75
2022-11-05T07:25:03.411Z,5.03
2022-11-05T07:27:30.398Z,4.78
2022-11-05T07:29:57.259Z,5.82
2022-11-05T07:32:24.154Z,4.50
2022-11-05T07:34:51.097Z,5.03
2022-11-05T07:37:18.216Z,5.70
2022-11-05T07:39:45.110Z,4.82
2022-11-05T07:42:13.661Z,5.47
2022-11-05T07:44:40.689Z,5.22
2022-11-05T07:47:08.189Z,5.00
2022-11-05T07:49:35.098Z,6.82
2022-11-05T07:52:01.992Z,6.05
2022-11-05T07:54:28.862Z,4.70
2022-11-05T07:56:55.690Z,5.28
2022-11-05T07:59:22.553Z,4.93
2022-11-05T08:01:49.579Z,4.95
2022-11-05T08:04:16.612Z,4.90
2022-11-05T08:06:43.415Z,4.43
2022-11-05T08:09:10.250Z,4.88
2022-11-05T08:11:37.171Z,4.90
2022-11-05T08:14:04.087Z,5.03
2022-11-05T08:16:31.198Z,4.68
2022-11-05T08:18:58.048Z,3.75
2022-11-05T08:21:24.877Z,4.30
2022-11-05T08:24:24.087Z,4.28
2022-11-05T08:26:51.075Z,4.70
2022-11-05T08:29:17.922Z,4.68
2022-11-05T08:31:44.974Z,3.58
2022-11-05T08:34:12.026Z,4.03
2022-11-05T08:36:42.045Z,4.18
2022-11-05T08:39:14.279Z,3.70
2022-11-05T08:41:43.697Z,4.03
2022-11-05T08:44:10.587Z,4.47
2022-11-05T08:46:41.565Z,4.10
2022-11-05T08:49:08.872Z,3.65
2022-11-05T08:51:35.752Z,3.50
2022-11-05T08:54:02.606Z,4.38
2022-11-05T08:56:29.458Z,4.13
2022-11-05T08:58:56.298Z,4.10
2022-11-05T09:01:23.233Z,4.15
2022-11-05T09:03:51.907Z,3.55
2022-11-05T09:06:22.713Z,4.18
2022-11-05T09:08:49.701Z,4.05
2022-11-05T09:11:18.071Z,3.97
2022-11-05T09:13:44.908Z,3.50
2022-11-05T09:16:23.302Z,3.90
2022-11-05T09:18:50.510Z,3.45
2022-11-05T09:21:18.012Z,3.70
2022-11-05T09:23:47.348Z,3.95
2022-11-05T09:26:14.601Z,5.07
2022-11-05T09:28:43.408Z,3.95
2022-11-05T09:31:11.700Z,3.70
2022-11-05T09:33:40.862Z,3.75
2022-11-05T09:36:08.612Z,4.57
2022-11-05T09:38:36.055Z,4.18
2022-11-05T09:41:22.442Z,3.80
2022-11-05T09:43:51.571Z,3.70
2022-11-05T09:46:24.133Z,4.07
2022-11-05T09:49:12.456Z,4.88
2022-11-05T09:51:40.137Z,3.92
2022-11-05T09:54:07.020Z,4.13
2022-11-05T09:56:37.256Z,4.15
2022-11-05T09:59:19.837Z,4.30
2022-11-05T10:01:47.873Z,3.80
2022-11-05T10:04:21.782Z,3.97
2022-11-05T10:07:11.330Z,4.30
2022-11-05T10:09:47.938Z,4.18
2022-11-05T10:12:30.870Z,4.07
2022-11-05T10:15:13.593Z,3.78
2022-11-05T10:17:46.368Z,3.70
2022-11-05T10:20:24.954Z,3.80
2022-11-05T10:22:56.994Z,3.42
2022-11-05T10:25:27.489Z,3.28
2022-11-05T10:27:55.591Z,3.33
2022-11-05T10:30:23.095Z,3.47
2022-11-05T10:32:55.172Z,3.40
2022-11-05T10:35:24.736Z,3.05
2022-11-05T10:37:53.658Z,3.33
2022-11-05T10:40:35.594Z,4.18
2022-11-05T10:43:13.657Z,3.28
2022-11-05T10:46:15.958Z,2.80
2022-11-05T10:48:46.761Z,3.10
2022-11-05T10:51:14.652Z,3.20
2022-11-05T10:53:51.131Z,3.08
2022-11-05T10:56:31.560Z,3.13
2022-11-05T10:59:00.134Z,3.30
2022-11-05T11:01:27.627Z,3.15
2022-11-05T11:04:15.894Z,3.22
2022-11-05T11:06:51.763Z,3.22
2022-11-05T11:09:27.401Z,3.03
2022-11-05T11:11:59.428Z,2.95
2022-11-05T11:14:27.432Z,2.70
2022-11-05T11:16:57.488Z,2.97
2022-11-05T11:19:33.397Z,2.80
2022-11-05T11:22:05.955Z,3.10
2022-11-05T11:24:44.747Z,3.03
2022-11-05T11:27:23.956Z,2.42
2022-11-05T11:30:02.841Z,3.58
2022-11-05T11:32:36.413Z,3.00
2022-11-05T11:35:05.733Z,2.38
2022-11-05T11:37:42.668Z,2.78
2022-11-05T11:40:22.911Z,2.88
2022-11-05T11:42:54.992Z,3.00
2022-11-05T11:45:32.474Z,3.15
2022-11-05T11:48:02.924Z,2.53
2022-11-05T11:50:37.029Z,2.40
2022-11-05T11:53:34.973Z,2.30
2022-11-05T11:56:06.686Z,2.60
2022-11-05T11:58:49.629Z,2.70
2022-11-05T12:01:30.980Z,2.33
2022-11-05T12:04:11.499Z,3.03
2022-11-05T12:07:01.507Z,2.45
2022-11-05T12:10:02.271Z,3.00
2022-11-05T12:12:41.614Z,3.33
2022-11-05T12:15:29.531Z,2.90
2022-11-05T12:18:02.252Z,2.75
2022-11-05T12:20:58.366Z,3.13
2022-11-05T12:23:53.088Z,2.88
2022-11-05T12:26:23.783Z,2.85
2022-11-05T12:29:20.085Z,2.85
2022-11-05T12:32:01.171Z,2.78
2022-11-05T12:34:54.146Z,2.47
2022-11-05T12:37:30.751Z,2.60
2022-11-05T12:40:14.866Z,2.25
2022-11-05T12:43:11.893Z,2.67
2022-11-05T12:45:54.083Z,2.80
2022-11-05T12:48:36.925Z,2.65
2022-11-05T12:51:13.414Z,2.85
2022-11-05T12:53:46.230Z,2.50
2022-11-05T12:56:19.018Z,3.00
2022-11-05T12:58:52.513Z,2.63
2022-11-05T13:01:46.246Z,2.55
2022-11-05T13:04:30.930Z,2.60
2022-11-05T13:07:00.765Z,3.10
2022-11-05T13:09:41.622Z,2.88
2022-11-05T13:12:12.882Z,3.10
2022-11-05T13:14:45.135Z,2.42
2022-11-05T13:17:22.706Z,2.63
2022-11-05T13:19:52.605Z,2.67
2022-11-05T13:22:52.568Z,2.80
2022-11-05T13:25:21.472Z,3.03
2022-11-05T13:28:01.425Z,2.72
2022-11-05T13:30:38.329Z,3.13
2022-11-05T13:33:14.550Z,2.90
2022-11-05T13:36:14.524Z,2.60
2022-11-05T13:39:00.275Z,2.90
2022-11-05T13:41:38.766Z,3.15
2022-11-05T13:44:32.040Z,2.78
2022-11-05T13:47:22.489Z,2.83
2022-11-05T13:50:30.886Z,2.78
2022-11-05T13:53:00.564Z,2.72
2022-11-05T13:55:55.637Z,2.78
2022-11-05T13:58:37.447Z,2.72
2022-11-05T14:01:24.572Z,3.00
2022-11-05T14:03:53.586Z,2.72
2022-11-05T14:06:36.011Z,2.63
2022-11-05T14:09:08.425Z,2.50
2022-11-05T14:11:38.288Z,3.17
2022-11-05T14:14:08.911Z,2.67
2022-11-05T14:16:50.502Z,2.65
2022-11-05T14:19:20.091Z,2.75
2022-11-05T14:21:50.129Z,2.78
2022-11-05T14:24:40.113Z,2.58
2022-11-05T14:27:06.930Z,2.47
2022-11-05T14:30:00.452Z,2.53
2022-11-05T14:32:43.961Z,2.67
2022-11-05T14:35:16.817Z,2.72
2022-11-05T14:37:56.499Z,2.67
2022-11-05T14:40:32.831Z,2.40
2022-11-05T14:43:06.006Z,2.63
2022-11-05T14:45:35.001Z,2.85
2022-11-05T14:48:21.869Z,2.60
2022-11-05T14:50:49.346Z,2.42
2022-11-05T14:53:45.690Z,3.05
2022-11-05T14:56:18.935Z,2.97
2022-11-05T14:58:46.729Z,2.97
2022-11-05T15:01:13.858Z,3.05
2022-11-05T15:03:45.816Z,1.98
2022-11-05T15:06:24.630Z,2.90
2022-11-05T15:08:51.426Z,2.75
2022-11-05T15:11:18.162Z,2.72
2022-11-05T15:13:53.867Z,2.55
2022-11-05T15:16:29.878Z,2.60
2022-11-05T15:18:57.648Z,3.13
2022-11-05T15:21:25.329Z,3.28
2022-11-05T15:23:56.844Z,3.58
2022-11-05T15:27:01.742Z,3.15
2022-11-05T15:29:31.566Z,3.60
2022-11-05T15:31:59.215Z,3.42
2022-11-05T15:34:28.938Z,3.65
2022-11-05T15:36:59.608Z,3.65
2022-11-05T15:39:43.692Z,3.47
2022-11-05T15:42:15.909Z,3.38
2022-11-05T15:44:48.030Z,3.53
2022-11-05T15:47:34.199Z,3.47
2022-11-05T15:50:07.490Z,4.70
2022-11-05T15:52:48.719Z,3.33
2022-11-05T15:55:20.310Z,3.50
2022-11-05T15:57:51.043Z,4.35
2022-11-05T16:00:23.992Z,4.90
2022-11-05T16:02:58.115Z,4.00
2022-11-05T16:05:28.130Z,3.35
2022-11-05T16:07:58.851Z,4.55
2022-11-05T16:10:30.596Z,3.65
2022-11-05T16:12:57.626Z,4.72
2022-11-05T16:15:29.513Z,4.10
2022-11-05T16:17:59.264Z,4.10
2022-11-05T16:20:28.952Z,4.07
2022-11-05T16:22:59.189Z,4.22
2022-11-05T16:25:31.884Z,3.95
2022-11-05T16:28:00.584Z,3.58
2022-11-05T16:30:28.198Z,4.35
2022-11-05T16:33:02.444Z,4.20
2022-11-05T16:35:29.359Z,4.00
2022-11-05T16:37:56.274Z,4.20
2022-11-05T16:40:25.696Z,3.63
2022-11-05T16:42:54.232Z,3.40
2022-11-05T16:45:23.532Z,3.33
2022-11-05T16:47:51.072Z,3.67
2022-11-05T16:50:19.930Z,3.78
2022-11-05T16:52:47.049Z,3.90
2022-11-05T16:55:15.451Z,3.40
2022-11-05T16:57:48.072Z,3.65
2022-11-05T17:00:17.322Z,4.50
2022-11-05T17:02:45.332Z,3.67
2022-11-05T17:05:27.653Z,3.83
2022-11-05T17:07:55.213Z,3.17
2022-11-05T17:10:23.510Z,3.38
2022-11-05T17:12:51.213Z,3.40
2022-11-05T17:15:35.348Z,3.30
2022-11-05T17:18:03.729Z,3.20
2022-11-05T17:20:36.524Z,4.05
2022-11-05T17:23:07.544Z,3.63
2022-11-05T17:25:35.254Z,4.10
2022-11-05T17:28:03.028Z,3.58
2022-11-05T17:30:29.995Z,3.72
2022-11-05T17:32:57.078Z,3.25
2022-11-05T17:35:24.287Z,3.72
2022-11-05T17:37:51.232Z,3.40
2022-11-05T17:40:19.966Z,3.53
2022-11-05T17:42:46.862Z,3.40
2022-11-05T17:45:14.657Z,3.60
2022-11-05T17:47:41.862Z,4.22
2022-11-05T17:50:12.185Z,3.72
2022-11-05T17:52:39.032Z,3.35
2022-11-05T17:55:16.679Z,2.95
2022-11-05T17:57:48.448Z,4.00
2022-11-05T18:00:18.726Z,3.70
2022-11-05T18:02:46.442Z,4.28
2022-11-05T18:05:13.662Z,2.83
2022-11-05T18:07:41.463Z,3.13
2022-11-05T18:10:09.079Z,3.50
2022-11-05T18:12:36.459Z,3.17
2022-11-05T18:15:03.634Z,3.35
2022-11-05T18:17:30.506Z,3.35
2022-11-05T18:19:57.401Z,3.28
2022-11-05T18:22:26.631Z,4.07
2022-11-05T18:24:54.836Z,3.70
2022-11-05T18:27:24.614Z,4.40
2022-11-05T18:29:51.645Z,6.07
2022-11-05T18:32:18.569Z,4.85
2022-11-05T18:34:45.494Z,5.30
2022-11-05T18:37:12.356Z,5.60
2022-11-05T18:39:39.328Z,4.72
2022-11-05T18:42:06.239Z,4.15
2022-11-05T18:44:38.812Z,4.25
2022-11-05T18:47:06.903Z,4.35
2022-11-05T18:49:34.486Z,4.30
2022-11-05T18:52:01.291Z,4.13
2022-11-05T18:54:28.798Z,4.07
2022-11-05T18:56:55.725Z,4.00
2022-11-05T18:59:36.664Z,4.20
2022-11-05T19:02:04.101Z,3.47
2022-11-05T19:04:31.167Z,3.80
2022-11-05T19:07:03.288Z,3.55
2022-11-05T19:09:31.867Z,3.50
2022-11-05T19:11:58.753Z,3.53
2022-11-05T19:14:25.715Z,4.45
2022-11-05T19:16:52.588Z,4.05
2022-11-05T19:19:19.534Z,3.90
2022-11-05T19:21:46.362Z,3.80
2022-11-05T19:24:20.362Z,3.83
2022-11-05T19:26:48.081Z,3.60
2022-11-05T19:29:14.954Z,4.25
2022-11-05T19:31:42.086Z,4.63
2022-11-05T19:34:09.175Z,3.95
2022-11-05T19:36:36.011Z,3.33
2022-11-05T19:39:06.552Z,3.47
2022-11-05T19:41:33.673Z,3.88
2022-11-05T19:44:03.824Z,4.03
2022-11-05T19:46:31.316Z,3.35
2022-11-05T19:48:59.983Z,3.25
2022-11-05T19:51:29.847Z,4.03
2022-11-05T19:53:58.081Z,3.17
2022-11-05T19:56:27.674Z,2.80
2022-11-05T19:58:54.805Z,3.10
2022-11-05T20:01:23.647Z,2.95
2022-11-05T20:03:51.153Z,2.92
2022-11-05T20:06:21.960Z,3.50
2022-11-05T20:11:37.744Z,3.03
2022-11-05T20:14:05.476Z,2.90
2022-11-05T20:16:37.922Z,3.72
2022-11-05T20:19:06.830Z,6.97
2022-11-05T20:21:34.199Z,4.05
2022-11-05T20:24:01.078Z,3.22
2022-11-05T20:26:28.000Z,4.20
2022-11-05T20:28:55.602Z,4.60
2022-11-05T20:31:22.823Z,3.35
2022-11-05T20:33:50.162Z,3.40
2022-11-05T20:36:19.827Z,3.60
2022-11-05T20:38:52.605Z,3.15
2022-11-05T20:41:19.754Z,2.88
2022-11-05T20:43:48.010Z,3.85
2022-11-05T20:46:16.962Z,3.63
2022-11-05T20:48:44.392Z,3.72
2022-11-05T20:51:14.196Z,3.25
2022-11-05T20:53:41.651Z,3.38
2022-11-05T20:56:09.344Z,3.33
2022-11-05T20:58:37.582Z,2.80
2022-11-05T21:01:05.574Z,3.60
2022-11-05T21:03:33.117Z,3.05
2022-11-05T21:06:04.468Z,2.90
2022-11-05T21:08:32.335Z,3.65
2022-11-05T21:10:59.593Z,2.92
2022-11-05T21:13:27.311Z,3.25
2022-11-05T21:15:59.077Z,2.80
2022-11-05T21:18:28.533Z,3.25
2022-11-05T21:20:55.780Z,3.05
2022-11-05T21:23:23.027Z,3.28
2022-11-05T21:25:49.925Z,3.05
2022-11-05T21:28:16.873Z,3.35
2022-11-05T21:30:45.847Z,3.20
2022-11-05T21:33:14.237Z,3.58
2022-11-05T21:35:50.103Z,3.55
2022-11-05T21:38:17.542Z,3.40
2022-11-05T21:40:45.455Z,3.20
2022-11-05T21:43:13.195Z,2.90
2022-11-05T21:45:44.338Z,3.88
2022-11-05T21:48:12.244Z,3.40
2022-11-05T21:50:58.111Z,2.70
2022-11-05T21:53:43.945Z,3.47
2022-11-05T21:56:38.825Z,3.00
2022-11-05T21:59:24.424Z,2.97
2022-11-05T22:02:01.236Z,3.38
2022-11-05T22:04:33.544Z,2.78
2022-11-05T22:07:00.926Z,3.90
2022-11-05T22:09:28.318Z,4.25
2022-11-05T22:11:55.511Z,3.17
2022-11-05T22:14:23.043Z,3.10
2022-11-05T22:16:50.039Z,3.15
2022-11-05T22:19:16.986Z,2.95
2022-11-05T22:21:43.946Z,2.95
2022-11-05T22:24:10.741Z,2.70
2022-11-05T22:26:38.919Z,3.53
2022-11-05T22:29:06.925Z,3.00
2022-11-05T22:31:36.541Z,2.65
2022-11-05T22:34:04.789Z,3.17
2022-11-05T22:36:33.210Z,2.50
2022-11-05T22:39:00.312Z,2.58
2022-11-05T22:41:27.308Z,2.97
2022-11-05T22:43:54.596Z,2.30
2022-11-05T22:46:23.893Z,2.50
2022-11-05T22:48:51.230Z,2.45
2022-11-05T22:51:21.270Z,2.28
2022-11-05T22:53:48.934Z,2.53
2022-11-05T22:56:18.474Z,2.28
2022-11-05T22:58:45.619Z,2.13
2022-11-05T23:01:13.605Z,2.70
2022-11-05T23:03:42.097Z,2.40
2022-11-05T23:06:36.530Z,2.33
2022-11-05T23:09:25.005Z,2.25
2022-11-05T23:11:53.542Z,2.40
2022-11-05T23:14:20.413Z,2.58
2022-11-05T23:17:05.684Z,2.20
2022-11-05T23:19:51.006Z,2.53
2022-11-05T23:22:45.760Z,2.30
2022-11-05T23:25:17.046Z,2.25
2022-11-05T23:27:45.374Z,2.90
2022-11-05T23:30:18.968Z,2.25
2022-11-05T23:32:46.050Z,2.00
2022-11-05T23:35:13.388Z,1.98
2022-11-05T23:38:16.018Z,2.28
2022-11-05T23:41:02.983Z,2.40
2022-11-05T23:43:48.269Z,2.10
2022-11-05T23:46:33.658Z,2.20
2022-11-05T23:49:00.667Z,2.17
2022-11-05T23:51:27.466Z,2.67
2022-11-05T23:53:54.315Z,2.25
2022-11-05T23:56:21.130Z,2.47
2022-11-05T23:58:48.133Z,2.17
